createdAt,value
2022-09-07T00:01:37.931Z,92198.84
2022-09-07T00:04:04.723Z,92193.25
2022-09-07T00:06:34.584Z,92192.56
2022-09-07T00:09:04.510Z,92194.00
2022-09-07T00:11:31.110Z,92198.16
2022-09-07T00:13:57.931Z,92193.25
2022-09-07T00:16:30.652Z,92198.84
2022-09-07T00:18:59.689Z,92198.84
2022-09-07T00:21:27.416Z,92192.56
2022-09-07T00:23:55.699Z,92193.25
2022-09-07T00:26:24.579Z,92184.88
2022-09-07T00:28:52.432Z,92187.66
2022-09-07T00:31:22.111Z,92173.69
2022-09-07T00:33:50.678Z,92170.19
2022-09-07T00:36:18.587Z,92175.03
2022-09-07T00:38:45.827Z,92173.69
2022-09-07T00:41:13.376Z,92172.97
2022-09-07T00:43:52.759Z,92163.84
2022-09-07T00:46:32.103Z,92158.25
2022-09-07T00:49:08.144Z,92159.72
2022-09-07T00:51:50.282Z,92158.25
2022-09-07T00:54:25.908Z,92151.94
2022-09-07T00:56:53.684Z,92144.28
2022-09-07T00:59:25.142Z,92147.06
2022-09-07T01:01:51.940Z,92141.47
2022-09-07T01:04:19.437Z,92151.94
2022-09-07T01:06:46.083Z,92135.88
2022-09-07T01:09:18.303Z,92135.88
2022-09-07T01:11:50.973Z,92140.75
2022-09-07T01:14:22.567Z,92141.47
2022-09-07T01:17:10.916Z,92145.63
2022-09-07T01:19:55.711Z,92147.06
2022-09-07T01:22:46.723Z,92145.63
2022-09-07T01:25:22.355Z,92152.66
2022-09-07T01:27:57.931Z,92151.22
2022-09-07T01:30:25.027Z,92144.88
2022-09-07T01:33:16.935Z,92151.22
2022-09-07T01:36:21.072Z,92151.22
2022-09-07T01:38:53.232Z,92156.81
2022-09-07T01:41:49.317Z,92144.16
2022-09-07T01:44:24.995Z,92144.16
2022-09-07T01:47:01.583Z,92151.22
2022-09-07T01:49:40.241Z,92161.66
2022-09-07T01:52:32.154Z,92162.41
2022-09-07T01:55:03.756Z,92156.06
2022-09-07T01:57:42.729Z,92149.75
2022-09-07T02:00:16.104Z,92155.34
2022-09-07T02:02:48.836Z,92159.59
2022-09-07T02:05:23.117Z,92161.66
2022-09-07T02:07:56.015Z,92162.41
2022-09-07T02:10:28.550Z,92162.41
2022-09-07T02:13:02.128Z,92160.94
2022-09-07T02:15:42.725Z,92149.75
2022-09-07T02:18:11.532Z,92149.75
2022-09-07T02:20:40.043Z,92151.81
2022-09-07T02:23:14.240Z,92143.41
2022-09-07T02:25:47.252Z,92148.28
2022-09-07T02:28:18.809Z,92137.81
2022-09-07T02:30:46.167Z,92133.69
2022-09-07T02:33:12.895Z,92134.31
2022-09-07T02:35:39.628Z,92125.94
2022-09-07T02:38:07.044Z,92123.13
2022-09-07T02:40:34.626Z,92114.00
2022-09-07T02:43:04.259Z,92106.34
2022-09-07T02:45:49.987Z,92111.94
2022-09-07T02:49:02.487Z,92104.25
2022-09-07T02:51:36.487Z,92121.03
2022-09-07T02:54:27.787Z,92114.75
2022-09-07T02:57:10.448Z,92097.97
2022-09-07T03:00:15.924Z,92102.09
2022-09-07T03:03:13.367Z,92094.44
2022-09-07T03:05:48.983Z,92097.97
2022-09-07T03:08:21.355Z,92096.50
2022-09-07T03:10:49.327Z,92103.56
2022-09-07T03:13:30.752Z,92103.56
2022-09-07T03:15:57.818Z,92109.16
2022-09-07T03:18:26.628Z,92107.66
2022-09-07T03:20:53.265Z,92109.16
2022-09-07T03:23:19.938Z,92104.88
2022-09-07T03:25:47.971Z,92109.16
2022-09-07T03:28:14.918Z,92104.88
2022-09-07T03:30:47.158Z,92101.38
2022-09-07T03:33:17.123Z,92090.19
2022-09-07T03:35:45.247Z,92095.78
2022-09-07T03:38:11.974Z,92103.56
2022-09-07T03:40:38.552Z,92102.09
2022-09-07T03:43:05.202Z,92106.22
2022-09-07T03:45:31.779Z,92108.28
2022-09-07T03:47:58.925Z,92107.66
2022-09-07T03:50:25.630Z,92113.25
2022-09-07T03:52:52.156Z,92113.25
2022-09-07T03:55:18.721Z,92118.16
2022-09-07T03:57:45.329Z,92109.03
2022-09-07T04:00:12.644Z,92123.00
2022-09-07T04:02:39.349Z,92118.84
2022-09-07T04:05:06.240Z,92118.84
2022-09-07T04:07:33.144Z,92125.78
2022-09-07T04:09:59.676Z,92123.75
2022-09-07T04:12:26.208Z,92125.78
2022-09-07T04:14:52.724Z,92131.38
2022-09-07T04:17:19.256Z,92122.25
2022-09-07T04:19:45.778Z,92128.59
2022-09-07T04:22:12.292Z,92128.59
2022-09-07T04:24:38.994Z,92133.44
2022-09-07T04:27:05.555Z,92122.25
2022-09-07T04:29:32.104Z,92120.22
2022-09-07T04:31:58.667Z,92121.53
2022-09-07T04:34:25.216Z,92125.06
2022-09-07T04:36:51.742Z,92123.00
2022-09-07T04:39:18.298Z,92127.13
2022-09-07T04:41:44.883Z,92132.72
2022-09-07T04:44:16.086Z,92127.13
2022-09-07T04:46:43.504Z,92127.13
2022-09-07T04:49:11.843Z,92130.66
2022-09-07T04:51:39.495Z,92135.50
2022-09-07T04:54:07.042Z,92132.72
2022-09-07T04:56:34.036Z,92129.91
2022-09-07T04:59:03.972Z,92135.50
2022-09-07T05:01:30.686Z,92131.25
2022-09-07T05:03:59.731Z,92131.25
2022-09-07T05:06:26.254Z,92124.94
2022-09-07T05:08:54.076Z,92125.66
2022-09-07T05:11:28.404Z,92122.88
2022-09-07T05:13:58.970Z,92118.03
2022-09-07T05:16:27.164Z,92115.94
2022-09-07T05:18:55.893Z,92131.25
2022-09-07T05:21:25.342Z,92136.25
2022-09-07T05:23:53.503Z,92136.97
2022-09-07T05:26:22.096Z,92131.25
2022-09-07T05:28:49.154Z,92136.25
2022-09-07T05:31:17.200Z,92145.38
2022-09-07T05:36:44.130Z,92159.34
2022-09-07T05:39:10.817Z,92150.97
2022-09-07T05:41:37.355Z,92156.56
2022-09-07T05:46:54.131Z,92156.56
2022-09-07T05:49:20.662Z,92161.41
2022-09-07T05:51:48.332Z,92155.06
2022-09-07T05:54:14.974Z,92151.56
2022-09-07T05:56:41.551Z,92155.06
2022-09-07T05:59:08.156Z,92138.31
2022-09-07T06:01:35.917Z,92145.38
2022-09-07T06:04:02.788Z,92132.72
2022-09-07T06:06:29.476Z,92136.84
2022-09-07T06:08:57.700Z,92149.50
2022-09-07T06:11:26.258Z,92154.38
2022-09-07T06:13:53.105Z,92146.69
2022-09-07T06:16:20.367Z,92145.97
2022-09-07T06:18:48.421Z,92148.03
2022-09-07T06:21:20.507Z,92150.97
2022-09-07T06:23:47.959Z,92148.03
2022-09-07T06:26:16.664Z,92148.03
2022-09-07T06:28:48.721Z,92144.50
2022-09-07T06:31:20.801Z,92143.19
2022-09-07T06:33:48.115Z,92148.03
2022-09-07T06:36:17.571Z,92158.47
2022-09-07T06:38:44.874Z,92159.22
2022-09-07T06:44:02.993Z,92158.47
2022-09-07T06:49:16.163Z,92152.91
2022-09-07T06:51:42.747Z,92157.03
2022-09-07T06:56:59.167Z,92156.31
2022-09-07T06:59:25.681Z,92157.03
2022-09-07T07:01:52.291Z,92157.78
2022-09-07T07:04:18.815Z,92157.03
2022-09-07T07:06:45.326Z,92145.84
2022-09-07T07:09:14.024Z,92152.19
2022-09-07T07:11:43.500Z,92141.72
2022-09-07T07:14:14.681Z,92141.00
2022-09-07T07:16:41.672Z,92142.44
2022-09-07T07:19:08.718Z,92148.03
2022-09-07T07:21:55.262Z,92143.19
2022-09-07T07:24:22.858Z,92138.31
2022-09-07T07:26:49.894Z,92145.38
2022-09-07T07:29:18.760Z,92138.44
2022-09-07T07:31:47.000Z,92137.09
2022-09-07T07:34:14.171Z,92125.94
2022-09-07T07:36:40.686Z,92133.69
2022-09-07T07:39:07.206Z,92134.44
2022-09-07T07:44:20.995Z,92135.88
2022-09-07T07:46:49.345Z,92123.97
2022-09-07T07:49:17.964Z,92128.84
2022-09-07T07:54:34.051Z,92132.97
2022-09-07T07:57:00.555Z,92133.69
2022-09-07T07:59:27.097Z,92136.50
2022-09-07T08:01:53.879Z,92131.66
2022-09-07T08:04:20.479Z,92134.44
2022-09-07T08:06:46.975Z,92128.84
2022-09-07T08:09:13.478Z,92123.97
2022-09-07T08:11:40.539Z,92128.84
2022-09-07T08:14:08.975Z,92123.97
2022-09-07T08:16:36.380Z,92114.88
2022-09-07T08:19:03.451Z,92112.06
2022-09-07T08:21:30.007Z,92107.19
2022-09-07T08:23:56.538Z,92112.78
2022-09-07T08:26:23.006Z,92114.97
2022-09-07T08:28:49.502Z,92117.06
2022-09-07T08:31:17.460Z,92114.25
2022-09-07T08:33:44.774Z,92108.66
2022-09-07T08:36:20.027Z,92112.16
2022-09-07T08:38:47.392Z,92108.66
2022-09-07T08:41:42.163Z,92110.84
2022-09-07T08:44:30.159Z,92110.84
2022-09-07T08:47:23.404Z,92112.28
2022-09-07T08:50:13.090Z,92111.59
2022-09-07T08:52:58.408Z,92106.00
2022-09-07T08:55:32.199Z,92106.69
2022-09-07T08:58:22.206Z,92103.91
2022-09-07T09:06:39.639Z,92095.75
2022-09-07T09:09:25.106Z,92090.28
2022-09-07T09:11:51.547Z,92086.06
2022-09-07T09:14:35.807Z,92087.50
2022-09-07T09:17:16.691Z,92078.38
2022-09-07T09:20:02.511Z,92076.31
2022-09-07T09:22:29.575Z,92073.50
2022-09-07T09:25:13.465Z,92060.28
2022-09-07T09:27:39.979Z,92053.94
2022-09-07T09:30:20.979Z,92055.38
2022-09-07T09:32:49.844Z,92055.38
2022-09-07T09:35:28.612Z,92046.41
2022-09-07T09:37:57.603Z,92037.41
2022-09-07T09:40:25.744Z,92033.25
2022-09-07T09:43:20.695Z,92029.13
2022-09-07T09:48:40.445Z,92022.34
2022-09-07T09:54:06.061Z,92005.69
2022-09-07T09:56:37.688Z,92002.88
2022-09-07T10:05:35.106Z,91971.72
2022-09-07T10:08:02.660Z,91976.59
2022-09-07T10:10:30.222Z,91963.22
2022-09-07T10:12:57.426Z,91956.91
2022-09-07T10:15:41.126Z,91950.59
2022-09-07T10:18:18.605Z,91945.00
2022-09-07T10:20:45.325Z,91952.03
2022-09-07T10:23:21.935Z,91945.09
2022-09-07T10:25:48.827Z,91937.44
2022-09-07T10:28:24.897Z,91930.38
2022-09-07T10:31:14.104Z,91918.47
2022-09-07T10:36:48.918Z,91910.06
2022-09-07T10:39:22.831Z,91897.44
2022-09-07T10:41:57.899Z,91894.66
2022-09-07T10:44:51.842Z,91894.66
2022-09-07T10:47:27.406Z,91895.38
2022-09-07T10:53:39.018Z,91882.00
2022-09-07T10:56:09.519Z,91882.00
2022-09-07T10:59:02.240Z,91877.88
2022-09-07T11:01:54.339Z,91870.09
2022-09-07T11:04:34.135Z,91872.28
2022-09-07T11:07:53.238Z,91865.22
2022-09-07T11:10:53.506Z,91861.09
2022-09-07T11:13:26.967Z,91866.69
2022-09-07T11:16:05.354Z,91859.63
2022-09-07T11:19:34.960Z,91866.69
2022-09-07T11:21:58.498Z,91866.69
2022-09-07T11:24:24.943Z,91856.81
2022-09-07T11:26:57.810Z,91859.63
2022-09-07T11:29:43.003Z,91854.03
2022-09-07T11:32:17.883Z,91855.50
2022-09-07T11:34:55.642Z,91843.56
2022-09-07T11:38:05.399Z,91849.91
2022-09-07T11:40:35.214Z,91848.44
2022-09-07T11:43:22.130Z,91831.66
2022-09-07T11:45:56.374Z,91840.03
2022-09-07T11:48:35.023Z,91842.84
2022-09-07T11:51:21.216Z,91835.81
2022-09-07T11:53:56.047Z,91841.41
2022-09-07T11:56:29.059Z,91830.94
2022-09-07T11:59:14.213Z,91821.19
2022-09-07T12:02:05.509Z,91823.25
2022-09-07T12:04:58.412Z,91814.88
2022-09-07T12:07:31.065Z,91813.44
2022-09-07T12:10:15.539Z,91814.88
2022-09-07T12:13:08.379Z,91814.16
2022-09-07T12:15:59.432Z,91810.63
2022-09-07T12:18:56.056Z,91805.78
2022-09-07T12:21:43.947Z,91810.63
2022-09-07T12:24:35.296Z,91809.28
2022-09-07T12:27:03.340Z,91803.69
2022-09-07T12:29:31.054Z,91803.69
2022-09-07T12:34:55.544Z,91806.59
2022-09-07T12:37:36.491Z,91805.16
2022-09-07T12:40:30.692Z,91793.97
2022-09-07T12:43:15.258Z,91795.41
2022-09-07T12:45:42.204Z,91788.38
2022-09-07T12:48:17.617Z,91789.13
2022-09-07T12:51:08.292Z,91783.53
2022-09-07T12:53:57.916Z,91783.53
2022-09-07T12:56:30.507Z,91778.63
2022-09-07T12:59:20.235Z,91780.72
2022-09-07T13:02:15.058Z,91778.63
2022-09-07T13:05:00.031Z,91778.63
2022-09-07T13:07:46.422Z,91770.97
2022-09-07T13:10:33.966Z,91769.63
2022-09-07T13:13:03.734Z,91770.34
2022-09-07T13:15:33.483Z,91760.53
2022-09-07T13:18:00.713Z,91752.84
2022-09-07T13:20:35.001Z,91761.97
2022-09-07T13:23:21.213Z,91757.72
2022-09-07T13:25:53.253Z,91761.97
2022-09-07T13:28:52.526Z,91759.19
2022-09-07T13:31:34.008Z,91758.44
2022-09-07T13:34:00.695Z,91759.19
2022-09-07T13:36:47.703Z,91763.44
2022-09-07T13:39:18.828Z,91753.56
2022-09-07T13:41:52.343Z,91753.56
2022-09-07T13:44:30.091Z,91759.91
2022-09-07T13:49:58.396Z,91754.31
2022-09-07T13:52:37.098Z,91749.44
2022-09-07T13:55:25.611Z,91760.66
2022-09-07T14:00:53.568Z,91755.06
2022-09-07T14:03:21.354Z,91738.28
2022-09-07T14:05:47.951Z,91738.28
2022-09-07T14:08:25.503Z,91742.50
2022-09-07T14:10:52.079Z,91749.44
2022-09-07T14:13:19.311Z,91738.28
2022-09-07T14:18:29.016Z,91732.69
2022-09-07T14:23:27.979Z,91735.56
2022-09-07T14:26:22.030Z,91729.97
2022-09-07T14:28:51.859Z,91729.97
2022-09-07T14:31:20.841Z,91727.09
2022-09-07T14:33:55.847Z,91723.66
2022-09-07T14:36:45.789Z,91728.53
2022-09-07T14:39:18.887Z,91725.09
2022-09-07T14:41:45.945Z,91728.53
2022-09-07T14:47:02.643Z,91718.78
2022-09-07T14:51:55.934Z,91724.38
2022-09-07T14:54:32.711Z,91724.28
2022-09-07T14:57:06.567Z,91727.09
2022-09-07T15:02:19.083Z,91724.38
2022-09-07T15:04:47.267Z,91725.09
2022-09-07T15:07:45.376Z,91715.91
2022-09-07T15:10:20.889Z,91718.78
2022-09-07T15:12:58.643Z,91716.72
2022-09-07T15:15:30.378Z,91717.47
2022-09-07T15:18:05.896Z,91719.50
2022-09-07T15:20:44.136Z,91720.28
2022-09-07T15:23:14.271Z,91723.06
2022-09-07T15:25:46.489Z,91725.88
2022-09-07T15:34:10.110Z,91723.19
2022-09-07T15:36:40.340Z,91719.66
2022-09-07T15:39:08.663Z,91706.41
2022-09-07T15:41:35.170Z,91712.00
2022-09-07T15:44:02.336Z,91702.25
2022-09-07T15:46:28.920Z,91700.81
2022-09-07T15:48:56.198Z,91698.72
2022-09-07T15:54:14.297Z,91702.97
2022-09-07T15:56:42.668Z,91702.97
2022-09-07T15:59:10.715Z,91695.31
2022-09-07T16:01:55.371Z,91691.78
2022-09-07T16:04:24.163Z,91691.06
2022-09-07T16:06:51.075Z,91682.66
2022-09-07T16:09:21.438Z,91682.66
2022-09-07T16:11:49.981Z,91681.22
2022-09-07T16:14:18.700Z,91667.44
2022-09-07T16:19:35.071Z,91670.34
2022-09-07T16:22:03.187Z,91673.97
2022-09-07T16:24:30.287Z,91669.13
2022-09-07T16:26:56.869Z,91666.44
2022-09-07T16:29:23.409Z,91658.13
2022-09-07T16:34:36.454Z,91665.19
2022-09-07T16:37:03.310Z,91654.72
2022-09-07T16:39:29.833Z,91661.03
2022-09-07T16:41:56.383Z,91665.28
2022-09-07T16:44:23.227Z,91659.81
2022-09-07T16:46:50.597Z,91665.59
2022-09-07T16:49:17.748Z,91669.00
2022-09-07T16:51:45.762Z,91671.09
2022-09-07T16:54:13.627Z,91676.78
2022-09-07T16:56:40.151Z,91672.53
2022-09-07T16:59:09.669Z,91681.69
2022-09-07T17:01:38.070Z,91680.94
2022-09-07T17:04:09.891Z,91682.38
2022-09-07T17:06:38.027Z,91685.91
2022-09-07T17:09:05.202Z,91686.66
2022-09-07T17:11:34.782Z,91682.38
2022-09-07T17:14:01.375Z,91677.53
2022-09-07T17:16:32.077Z,91673.38
2022-09-07T17:21:51.774Z,91664.97
2022-09-07T17:24:19.733Z,91664.16
2022-09-07T17:26:46.506Z,91655.66
2022-09-07T17:29:13.395Z,91651.41
2022-09-07T17:34:29.267Z,91654.09
2022-09-07T17:36:55.695Z,91655.44
2022-09-07T17:39:22.206Z,91672.22
2022-09-07T17:41:49.579Z,91660.31
2022-09-07T17:44:16.272Z,91659.59
2022-09-07T17:46:43.271Z,91664.44
2022-09-07T17:49:13.989Z,91669.31
2022-09-07T17:51:40.591Z,91670.66
2022-09-07T17:54:11.494Z,91675.53
2022-09-07T17:56:39.832Z,91669.22
2022-09-07T18:01:55.912Z,91688.81
2022-09-07T18:04:22.842Z,91679.69
2022-09-07T18:06:49.603Z,91681.75
2022-09-07T18:09:16.459Z,91687.34
2022-09-07T18:11:48.198Z,91692.94
2022-09-07T18:14:15.748Z,91697.09
2022-09-07T18:16:44.046Z,91699.16
2022-09-07T18:19:11.872Z,91701.22
2022-09-07T18:21:40.973Z,91704.03
2022-09-07T18:24:20.615Z,91702.59
2022-09-07T18:26:51.225Z,91710.97
2022-09-07T18:29:31.363Z,91710.97
2022-09-07T18:32:02.630Z,91710.97
2022-09-07T18:34:29.299Z,91713.66
2022-09-07T18:36:57.174Z,91722.06
2022-09-07T18:39:24.883Z,91713.66
2022-09-07T18:41:51.702Z,91717.78
2022-09-07T18:47:06.443Z,91727.75
2022-09-07T18:49:32.915Z,91724.84
2022-09-07T18:54:45.920Z,91726.09
2022-09-07T18:57:12.947Z,91721.81
2022-09-07T18:59:40.959Z,91732.91
2022-09-07T19:02:09.431Z,91727.31
2022-09-07T19:07:27.337Z,91725.88
2022-09-07T19:09:55.638Z,91716.13
2022-09-07T19:12:22.342Z,91711.75
2022-09-07T19:14:48.844Z,91715.91
2022-09-07T19:17:15.362Z,91721.38
2022-09-07T19:19:42.132Z,91719.28
2022-09-07T19:22:08.664Z,91724.16
2022-09-07T19:24:35.154Z,91718.56
2022-09-07T19:27:01.716Z,91717.13
2022-09-07T19:29:28.663Z,91719.91
2022-09-07T19:32:04.603Z,91728.28
2022-09-07T19:34:36.068Z,91721.25
2022-09-07T19:37:04.007Z,91711.53
2022-09-07T19:39:30.659Z,91715.66
2022-09-07T19:41:57.293Z,91720.53
2022-09-07T19:44:23.800Z,91724.06
2022-09-07T19:46:50.382Z,91726.84
2022-09-07T19:49:17.301Z,91725.38
2022-09-07T19:51:44.035Z,91728.19
2022-09-07T19:54:11.917Z,91728.19
2022-09-07T19:56:39.815Z,91726.75
2022-09-07T19:59:06.803Z,91728.09
2022-09-07T20:01:33.979Z,91722.50
2022-09-07T20:04:16.023Z,91722.41
2022-09-07T20:06:46.347Z,91716.81
2022-09-07T20:09:15.427Z,91708.41
2022-09-07T20:11:46.233Z,91709.75
2022-09-07T20:14:14.603Z,91705.50
2022-09-07T20:16:41.781Z,91711.09
2022-09-07T20:19:08.468Z,91717.41
2022-09-07T20:21:36.893Z,91727.13
2022-09-07T20:24:04.712Z,91720.81
2022-09-07T20:26:32.506Z,91708.91
2022-09-07T20:29:16.822Z,91706.13
2022-09-07T20:31:46.918Z,91689.94
2022-09-07T20:34:13.731Z,91691.41
2022-09-07T20:36:40.463Z,91684.34
2022-09-07T20:39:07.356Z,91680.13
2022-09-07T20:41:35.173Z,91688.50
2022-09-07T20:44:03.581Z,91683.66
2022-09-07T20:46:31.018Z,91668.94
2022-09-07T20:48:57.875Z,91662.59
2022-09-07T20:51:24.449Z,91648.63
2022-09-07T20:53:51.037Z,91643.03
2022-09-07T20:56:20.516Z,91643.03
2022-09-07T20:58:48.077Z,91643.75
2022-09-07T21:01:18.152Z,91639.63
2022-09-07T21:03:49.262Z,91645.94
2022-09-07T21:06:17.171Z,91639.72
2022-09-07T21:08:45.110Z,91634.88
2022-09-07T21:11:21.319Z,91637.03
2022-09-07T21:13:48.395Z,91646.91
2022-09-07T21:16:16.527Z,91652.50
2022-09-07T21:18:44.494Z,91648.34
2022-09-07T21:21:20.350Z,91657.47
2022-09-07T21:23:48.173Z,91657.47
2022-09-07T21:26:19.684Z,91648.34
2022-09-07T21:28:46.170Z,91649.06
2022-09-07T21:31:12.769Z,91652.59
2022-09-07T21:33:39.275Z,91655.41
2022-09-07T21:36:10.974Z,91662.31
2022-09-07T21:38:38.416Z,91652.59
2022-09-07T21:41:16.065Z,91653.31
2022-09-07T21:43:43.079Z,91649.81
2022-09-07T21:46:15.723Z,91658.19
2022-09-07T21:48:42.958Z,91661.00
2022-09-07T21:51:10.050Z,91661.00
2022-09-07T21:53:36.592Z,91663.78
2022-09-07T21:56:05.757Z,91658.19
2022-09-07T21:58:33.095Z,91644.22
2022-09-07T22:01:00.817Z,91641.41
2022-09-07T22:03:27.541Z,91638.63
2022-09-07T22:05:54.184Z,91638.63
2022-09-07T22:08:20.793Z,91640.06
2022-09-07T22:10:47.358Z,91640.06
2022-09-07T22:13:13.989Z,91639.31
2022-09-07T22:15:41.609Z,91628.13
2022-09-07T22:18:11.965Z,91634.47
2022-09-07T22:20:38.670Z,91630.22
2022-09-07T22:23:05.459Z,91627.44
2022-09-07T22:25:32.975Z,91631.66
2022-09-07T22:27:59.460Z,91630.22
2022-09-07T22:30:25.984Z,91630.22
2022-09-07T22:32:52.446Z,91621.84
2022-09-07T22:35:20.068Z,91628.13
2022-09-07T22:37:46.640Z,91627.44
2022-09-07T22:40:14.831Z,91615.50
2022-09-07T22:42:41.625Z,91615.50
2022-09-07T22:45:08.603Z,91605.06
2022-09-07T22:47:35.121Z,91599.47
2022-09-07T22:50:01.697Z,91599.47
2022-09-07T22:52:28.252Z,91597.28
2022-09-07T22:54:54.727Z,91598.00
2022-09-07T22:57:21.226Z,91614.78
2022-09-07T22:59:47.751Z,91621.09
2022-09-07T23:02:14.255Z,91633.03
2022-09-07T23:04:41.301Z,91625.97
2022-09-07T23:07:08.252Z,91633.03
2022-09-07T23:09:34.818Z,91634.34
2022-09-07T23:12:01.560Z,91642.75
2022-09-07T23:14:28.078Z,91641.41
2022-09-07T23:16:54.634Z,91642.75
2022-09-07T23:19:21.540Z,91645.53
2022-09-07T23:21:48.375Z,91642.75
2022-09-07T23:24:17.090Z,91636.41
2022-09-07T23:26:44.245Z,91642.75
2022-09-07T23:29:12.758Z,91653.94
2022-09-07T23:31:40.393Z,91648.34
2022-09-07T23:34:07.814Z,91647.59
2022-09-07T23:36:34.575Z,91646.91
2022-09-07T23:39:01.333Z,91647.59
2022-09-07T23:41:28.443Z,91653.94
2022-09-07T23:43:55.597Z,91656.72
2022-09-07T23:46:22.576Z,91653.94
2022-09-07T23:48:49.783Z,91665.84
2022-09-07T23:51:21.275Z,91672.06
2022-09-07T23:53:50.529Z,91669.97
2022-09-07T23:56:17.229Z,91680.44
2022-09-07T23:58:44.001Z,91687.47
